sensor_id;sensor_type;location;lat;lon;timestamp;pressure;altitude;pressure_sealevel;temperature;humidity
13594;BME280;6449;47.666;9.160;2023-06-10T00:03:50;96497.56;;;20.23;96.53
13594;BME280;6449;47.666;9.160;2023-06-10T00:08:44;96497.53;;;20.38;98.25
13594;BME280;6449;47.666;9.160;2023-06-10T00:13:39;96500.53;;;20.13;96.33
13594;BME280;6449;47.666;9.160;2023-06-10T00:18:34;96504.91;;;20.21;96.63
13594;BME280;6449;47.666;9.160;2023-06-10T00:23:29;96499.59;;;20.72;94.40
13594;BME280;6449;47.666;9.160;2023-06-10T00:28:22;96495.63;;;20.47;94.80
13594;BME280;6449;47.666;9.160;2023-06-10T00:33:16;96495.72;;;20.24;96.70
13594;BME280;6449;47.666;9.160;2023-06-10T00:38:12;96504.31;;;19.89;100.00
13594;BME280;6449;47.666;9.160;2023-06-10T00:43:06;96487.91;;;20.22;98.91
13594;BME280;6449;47.666;9.160;2023-06-10T00:48:00;96496.19;;;20.27;97.66
13594;BME280;6449;47.666;9.160;2023-06-10T00:52:54;96488.97;;;20.06;97.14
13594;BME280;6449;47.666;9.160;2023-06-10T00:57:50;96476.53;;;19.92;97.35
13594;BME280;6449;47.666;9.160;2023-06-10T01:02:44;96487.25;;;19.99;97.97
13594;BME280;6449;47.666;9.160;2023-06-10T01:07:44;96487.25;;;19.31;99.83
13594;BME280;6449;47.666;9.160;2023-06-10T01:12:44;96483.44;;;19.34;100.00
13594;BME280;6449;47.666;9.160;2023-06-10T01:17:56;96483.84;;;19.75;100.00
13594;BME280;6449;47.666;9.160;2023-06-10T01:22:51;96488.59;;;19.50;99.27
13594;BME280;6449;47.666;9.160;2023-06-10T01:27:48;96487.19;;;19.40;100.00
13594;BME280;6449;47.666;9.160;2023-06-10T01:32:48;96493.88;;;18.98;100.00
13594;BME280;6449;47.666;9.160;2023-06-10T01:37:46;96497.13;;;19.08;100.00
13594;BME280;6449;47.666;9.160;2023-06-10T01:42:42;96499.78;;;18.85;100.00
13594;BME280;6449;47.666;9.160;2023-06-10T01:47:36;96501.16;;;18.81;100.00
13594;BME280;6449;47.666;9.160;2023-06-10T01:52:30;96509.78;;;18.52;100.00
13594;BME280;6449;47.666;9.160;2023-06-10T01:57:23;96509.34;;;18.94;100.00
13594;BME280;6449;47.666;9.160;2023-06-10T02:02:19;96507.72;;;18.70;100.00
13594;BME280;6449;47.666;9.160;2023-06-10T02:07:14;96511.19;;;18.63;100.00
13594;BME280;6449;47.666;9.160;2023-06-10T02:12:09;96521.63;;;18.41;100.00
13594;BME280;6449;47.666;9.160;2023-06-10T02:17:02;96520.25;;;18.22;100.00
13594;BME280;6449;47.666;9.160;2023-06-10T02:21:58;96532.22;;;18.41;100.00
13594;BME280;6449;47.666;9.160;2023-06-10T02:26:51;96525.78;;;18.44;100.00
13594;BME280;6449;47.666;9.160;2023-06-10T02:31:45;96518.03;;;18.57;100.00
13594;BME280;6449;47.666;9.160;2023-06-10T02:36:38;96528.59;;;18.11;100.00
13594;BME280;6449;47.666;9.160;2023-06-10T02:41:33;96531.59;;;18.39;100.00
13594;BME280;6449;47.666;9.160;2023-06-10T02:46:26;96528.19;;;18.22;100.00
13594;BME280;6449;47.666;9.160;2023-06-10T02:51:21;96539.53;;;18.08;100.00
13594;BME280;6449;47.666;9.160;2023-06-10T02:56:17;96543.44;;;18.28;100.00
13594;BME280;6449;47.666;9.160;2023-06-10T03:01:12;96539.84;;;18.13;100.00
13594;BME280;6449;47.666;9.160;2023-06-10T03:06:05;96551.03;;;17.68;100.00
13594;BME280;6449;47.666;9.160;2023-06-10T03:11:00;96557.53;;;17.57;100.00
13594;BME280;6449;47.666;9.160;2023-06-10T03:15:53;96567.00;;;17.35;100.00
13594;BME280;6449;47.666;9.160;2023-06-10T03:20:48;96573.44;;;17.65;100.00
13594;BME280;6449;47.666;9.160;2023-06-10T03:25:43;96572.09;;;17.69;100.00
13594;BME280;6449;47.666;9.160;2023-06-10T03:30:37;96564.81;;;17.79;100.00
13594;BME280;6449;47.666;9.160;2023-06-10T03:35:31;96572.59;;;17.73;100.00
13594;BME280;6449;47.666;9.160;2023-06-10T03:40:26;96567.13;;;17.83;100.00
13594;BME280;6449;47.666;9.160;2023-06-10T03:45:19;96569.13;;;17.72;100.00
13594;BME280;6449;47.666;9.160;2023-06-10T03:50:13;96581.72;;;17.78;100.00
13594;BME280;6449;47.666;9.160;2023-06-10T03:55:07;96583.34;;;17.71;100.00
13594;BME280;6449;47.666;9.160;2023-06-10T04:00:03;96580.06;;;17.86;100.00
13594;BME280;6449;47.666;9.160;2023-06-10T04:05:00;96586.00;;;17.96;100.00
13594;BME280;6449;47.666;9.160;2023-06-10T04:09:54;96589.28;;;18.06;100.00
13594;BME280;6449;47.666;9.160;2023-06-10T04:14:47;96584.50;;;17.93;100.00
13594;BME280;6449;47.666;9.160;2023-06-10T04:19:42;96585.97;;;18.04;100.00
13594;BME280;6449;47.666;9.160;2023-06-10T04:24:35;96586.31;;;18.01;100.00
13594;BME280;6449;47.666;9.160;2023-06-10T04:29:29;96599.59;;;18.01;100.00
13594;BME280;6449;47.666;9.160;2023-06-10T04:34:23;96598.78;;;18.31;100.00
13594;BME280;6449;47.666;9.160;2023-06-10T04:39:19;96598.88;;;18.54;100.00
13594;BME280;6449;47.666;9.160;2023-06-10T04:44:12;96606.13;;;18.69;100.00
13594;BME280;6449;47.666;9.160;2023-06-10T04:49:06;96608.66;;;19.16;100.00
13594;BME280;6449;47.666;9.160;2023-06-10T04:53:59;96613.41;;;19.29;100.00
13594;BME280;6449;47.666;9.160;2023-06-10T04:58:56;96615.31;;;19.58;100.00
13594;BME280;6449;47.666;9.160;2023-06-10T05:03:49;96617.38;;;19.71;100.00
13594;BME280;6449;47.666;9.160;2023-06-10T05:08:43;96607.63;;;20.01;100.00
13594;BME280;6449;47.666;9.160;2023-06-10T05:13:36;96613.84;;;20.08;100.00
13594;BME280;6449;47.666;9.160;2023-06-10T05:18:33;96624.88;;;20.34;100.00
13594;BME280;6449;47.666;9.160;2023-06-10T05:23:27;96631.69;;;20.66;100.00
13594;BME280;6449;47.666;9.160;2023-06-10T05:28:21;96633.16;;;20.54;100.00
13594;BME280;6449;47.666;9.160;2023-06-10T05:33:14;96631.13;;;20.41;100.00
13594;BME280;6449;47.666;9.160;2023-06-10T05:38:09;96630.78;;;20.30;100.00
13594;BME280;6449;47.666;9.160;2023-06-10T05:43:02;96643.06;;;20.16;100.00
13594;BME280;6449;47.666;9.160;2023-06-10T05:47:55;96637.00;;;20.22;100.00
13594;BME280;6449;47.666;9.160;2023-06-10T05:52:49;96639.75;;;20.44;100.00
13594;BME280;6449;47.666;9.160;2023-06-10T05:57:45;96642.34;;;20.37;100.00
13594;BME280;6449;47.666;9.160;2023-06-10T06:02:39;96642.16;;;20.38;100.00
13594;BME280;6449;47.666;9.160;2023-06-10T06:07:32;96649.06;;;20.62;100.00
13594;BME280;6449;47.666;9.160;2023-06-10T06:12:26;96646.13;;;20.72;100.00
13594;BME280;6449;47.666;9.160;2023-06-10T06:17:21;96643.69;;;20.18;100.00
13594;BME280;6449;47.666;9.160;2023-06-10T06:22:14;96639.31;;;19.73;100.00
13594;BME280;6449;47.666;9.160;2023-06-10T06:27:12;96645.06;;;19.61;100.00
13594;BME280;6449;47.666;9.160;2023-06-10T06:32:06;96640.63;;;19.77;100.00
13594;BME280;6449;47.666;9.160;2023-06-10T06:37:01;96645.31;;;19.89;100.00
13594;BME280;6449;47.666;9.160;2023-06-10T06:41:54;96647.28;;;20.10;100.00
13594;BME280;6449;47.666;9.160;2023-06-10T06:46:48;96648.66;;;20.21;100.00
13594;BME280;6449;47.666;9.160;2023-06-10T06:51:41;96646.91;;;20.28;100.00
13594;BME280;6449;47.666;9.160;2023-06-10T06:56:36;96649.63;;;20.58;100.00
13594;BME280;6449;47.666;9.160;2023-06-10T07:01:30;96656.78;;;20.72;100.00
13594;BME280;6449;47.666;9.160;2023-06-10T07:06:23;96644.16;;;21.17;100.00
13594;BME280;6449;47.666;9.160;2023-06-10T07:11:17;96647.13;;;21.43;100.00
13594;BME280;6449;47.666;9.160;2023-06-10T07:16:12;96647.25;;;21.57;100.00
13594;BME280;6449;47.666;9.160;2023-06-10T07:21:06;96639.16;;;21.71;97.28
13594;BME280;6449;47.666;9.160;2023-06-10T07:25:59;96639.19;;;22.00;98.63
13594;BME280;6449;47.666;9.160;2023-06-10T07:30:53;96635.91;;;22.26;97.06
13594;BME280;6449;47.666;9.160;2023-06-10T07:35:48;96632.78;;;22.57;94.48
13594;BME280;6449;47.666;9.160;2023-06-10T07:40:41;96632.97;;;22.48;95.11
13594;BME280;6449;47.666;9.160;2023-06-10T07:45:34;96629.63;;;22.81;94.02
13594;BME280;6449;47.666;9.160;2023-06-10T07:50:28;96630.22;;;22.83;95.49
13594;BME280;6449;47.666;9.160;2023-06-10T07:55:23;96636.88;;;22.53;90.01
13594;BME280;6449;47.666;9.160;2023-06-10T08:00:19;96636.38;;;22.77;90.13
13594;BME280;6449;47.666;9.160;2023-06-10T08:05:13;96637.59;;;23.22;88.62
13594;BME280;6449;47.666;9.160;2023-06-10T08:10:08;96638.00;;;23.33;86.35
13594;BME280;6449;47.666;9.160;2023-06-10T08:15:04;96637.28;;;23.78;86.35
13594;BME280;6449;47.666;9.160;2023-06-10T08:19:58;96638.94;;;23.99;85.71
13594;BME280;6449;47.666;9.160;2023-06-10T08:24:51;96640.38;;;23.89;89.03
13594;BME280;6449;47.666;9.160;2023-06-10T08:29:44;96634.16;;;24.41;84.40
13594;BME280;6449;47.666;9.160;2023-06-10T08:34:39;96627.94;;;24.47;78.79
13594;BME280;6449;47.666;9.160;2023-06-10T08:39:33;96635.63;;;24.24;83.42
13594;BME280;6449;47.666;9.160;2023-06-10T08:44:28;96636.44;;;23.91;86.80
13594;BME280;6449;47.666;9.160;2023-06-10T08:49:24;96635.63;;;24.11;84.32
13594;BME280;6449;47.666;9.160;2023-06-10T08:54:25;96628.97;;;24.53;82.45
13594;BME280;6449;47.666;9.160;2023-06-10T08:59:21;96630.22;;;24.50;81.54
13594;BME280;6449;47.666;9.160;2023-06-10T09:04:14;96629.16;;;25.03;82.81
13594;BME280;6449;47.666;9.160;2023-06-10T09:09:12;96608.84;;;25.27;77.15
13594;BME280;6449;47.666;9.160;2023-06-10T09:14:06;96624.00;;;25.15;77.33
13594;BME280;6449;47.666;9.160;2023-06-10T09:19:00;96612.72;;;24.93;76.92
13594;BME280;6449;47.666;9.160;2023-06-10T09:24:00;96617.59;;;25.16;77.83
13594;BME280;6449;47.666;9.160;2023-06-10T09:29:03;96617.44;;;25.42;75.98
13594;BME280;6449;47.666;9.160;2023-06-10T09:34:07;96613.22;;;25.53;75.45
13594;BME280;6449;47.666;9.160;2023-06-10T09:39:02;96604.06;;;25.92;73.09
13594;BME280;6449;47.666;9.160;2023-06-10T09:43:56;96612.28;;;25.97;73.70
13594;BME280;6449;47.666;9.160;2023-06-10T09:48:49;96608.28;;;26.06;71.39
13594;BME280;6449;47.666;9.160;2023-06-10T09:53:48;96616.16;;;25.76;76.24
13594;BME280;6449;47.666;9.160;2023-06-10T09:58:42;96599.63;;;26.23;74.57
13594;BME280;6449;47.666;9.160;2023-06-10T10:03:44;96600.13;;;26.56;73.51
13594;BME280;6449;47.666;9.160;2023-06-10T10:08:39;96599.13;;;26.87;70.32
13594;BME280;6449;47.666;9.160;2023-06-10T10:13:35;96596.19;;;26.89;71.79
13594;BME280;6449;47.666;9.160;2023-06-10T10:18:31;96588.53;;;27.04;70.86
13594;BME280;6449;47.666;9.160;2023-06-10T10:23:32;96587.31;;;26.88;71.81
13594;BME280;6449;47.666;9.160;2023-06-10T10:28:40;96578.25;;;27.01;69.40
13594;BME280;6449;47.666;9.160;2023-06-10T10:33:45;96571.94;;;27.37;67.97
13594;BME280;6449;47.666;9.160;2023-06-10T10:38:39;96573.94;;;27.30;68.53
13594;BME280;6449;47.666;9.160;2023-06-10T10:43:35;96566.47;;;27.44;65.98
13594;BME280;6449;47.666;9.160;2023-06-10T10:48:35;96563.69;;;27.62;66.59
13594;BME280;6449;47.666;9.160;2023-06-10T10:53:30;96570.41;;;27.83;66.47
13594;BME280;6449;47.666;9.160;2023-06-10T10:58:24;96548.41;;;27.98;65.43
13594;BME280;6449;47.666;9.160;2023-06-10T11:03:20;96540.75;;;27.95;64.60
13594;BME280;6449;47.666;9.160;2023-06-10T11:08:14;96542.19;;;27.86;66.95
13594;BME280;6449;47.666;9.160;2023-06-10T11:13:09;96538.66;;;28.09;65.53
13594;BME280;6449;47.666;9.160;2023-06-10T11:18:24;96535.13;;;28.20;63.55
13594;BME280;6449;47.666;9.160;2023-06-10T11:23:41;96534.75;;;28.52;63.88
13594;BME280;6449;47.666;9.160;2023-06-10T11:28:35;96532.03;;;28.52;63.79
13594;BME280;6449;47.666;9.160;2023-06-10T11:33:30;96529.88;;;28.65;62.15
13594;BME280;6449;47.666;9.160;2023-06-10T11:38:25;96530.06;;;28.47;61.34
13594;BME280;6449;47.666;9.160;2023-06-10T11:43:20;96531.84;;;28.30;61.04
13594;BME280;6449;47.666;9.160;2023-06-10T11:48:13;96527.47;;;28.52;60.16
13594;BME280;6449;47.666;9.160;2023-06-10T11:53:08;96522.88;;;28.53;59.64
13594;BME280;6449;47.666;9.160;2023-06-10T11:58:02;96517.22;;;28.66;61.32
13594;BME280;6449;47.666;9.160;2023-06-10T12:02:56;96516.28;;;28.60;59.81
13594;BME280;6449;47.666;9.160;2023-06-10T12:08:11;96508.84;;;28.51;62.27
13594;BME280;6449;47.666;9.160;2023-06-10T12:13:05;96496.47;;;28.55;60.91
13594;BME280;6449;47.666;9.160;2023-06-10T12:17:58;96504.09;;;28.58;60.94
13594;BME280;6449;47.666;9.160;2023-06-10T12:22:52;96504.53;;;28.14;62.58
13594;BME280;6449;47.666;9.160;2023-06-10T12:27:53;96496.25;;;28.04;62.00
13594;BME280;6449;47.666;9.160;2023-06-10T12:32:47;96494.38;;;27.93;61.63
13594;BME280;6449;47.666;9.160;2023-06-10T12:37:42;96476.81;;;28.02;57.96
13594;BME280;6449;47.666;9.160;2023-06-10T12:42:36;96480.31;;;27.91;57.46
13594;BME280;6449;47.666;9.160;2023-06-10T12:47:32;96485.06;;;28.24;59.58
13594;BME280;6449;47.666;9.160;2023-06-10T12:52:27;96477.97;;;27.94;57.64
13594;BME280;6449;47.666;9.160;2023-06-10T12:57:20;96478.91;;;28.00;58.19
13594;BME280;6449;47.666;9.160;2023-06-10T13:02:14;96476.91;;;27.96;55.43
13594;BME280;6449;47.666;9.160;2023-06-10T13:07:08;96475.84;;;28.08;55.81
13594;BME280;6449;47.666;9.160;2023-06-10T13:12:03;96467.44;;;27.93;53.88
13594;BME280;6449;47.666;9.160;2023-06-10T13:16:57;96465.34;;;27.72;57.58
13594;BME280;6449;47.666;9.160;2023-06-10T13:21:55;96454.44;;;27.78;55.62
13594;BME280;6449;47.666;9.160;2023-06-10T13:26:49;96452.00;;;27.77;55.93
13594;BME280;6449;47.666;9.160;2023-06-10T13:31:43;96461.66;;;28.01;58.08
13594;BME280;6449;47.666;9.160;2023-06-10T13:36:36;96438.41;;;27.72;54.68
13594;BME280;6449;47.666;9.160;2023-06-10T13:41:30;96458.06;;;27.49;58.30
13594;BME280;6449;47.666;9.160;2023-06-10T13:46:24;96448.56;;;27.58;55.14
13594;BME280;6449;47.666;9.160;2023-06-10T13:51:18;96444.25;;;27.45;53.63
13594;BME280;6449;47.666;9.160;2023-06-10T13:56:12;96447.56;;;27.71;57.02
13594;BME280;6449;47.666;9.160;2023-06-10T14:01:06;96446.72;;;27.70;58.33
13594;BME280;6449;47.666;9.160;2023-06-10T14:06:01;96435.34;;;27.80;56.20
13594;BME280;6449;47.666;9.160;2023-06-10T14:10:55;96429.63;;;27.76;55.68
13594;BME280;6449;47.666;9.160;2023-06-10T14:15:48;96439.31;;;27.54;58.78
13594;BME280;6449;47.666;9.160;2023-06-10T14:20:42;96425.38;;;27.57;56.11
13594;BME280;6449;47.666;9.160;2023-06-10T14:25:40;96433.13;;;27.77;59.36
13594;BME280;6449;47.666;9.160;2023-06-10T14:30:33;96423.06;;;27.72;53.14
13594;BME280;6449;47.666;9.160;2023-06-10T14:35:26;96420.09;;;27.85;53.79
13594;BME280;6449;47.666;9.160;2023-06-10T14:40:20;96429.25;;;27.84;55.05
13594;BME280;6449;47.666;9.160;2023-06-10T14:45:17;96421.44;;;27.71;57.30
13594;BME280;6449;47.666;9.160;2023-06-10T14:50:10;96427.97;;;27.87;57.38
13594;BME280;6449;47.666;9.160;2023-06-10T14:55:05;96415.78;;;27.73;55.48
13594;BME280;6449;47.666;9.160;2023-06-10T14:59:59;96413.78;;;27.68;54.14
13594;BME280;6449;47.666;9.160;2023-06-10T15:04:54;96414.84;;;27.67;56.21
13594;BME280;6449;47.666;9.160;2023-06-10T15:09:47;96408.78;;;27.72;56.95
13594;BME280;6449;47.666;9.160;2023-06-10T15:14:41;96405.25;;;27.83;56.42
13594;BME280;6449;47.666;9.160;2023-06-10T15:19:34;96391.97;;;27.93;53.69
13594;BME280;6449;47.666;9.160;2023-06-10T15:24:29;96389.53;;;27.80;52.94
13594;BME280;6449;47.666;9.160;2023-06-10T15:29:22;96390.34;;;27.80;53.98
13594;BME280;6449;47.666;9.160;2023-06-10T15:34:15;96403.50;;;27.77;57.03
13594;BME280;6449;47.666;9.160;2023-06-10T15:39:09;96395.88;;;27.62;57.10
13594;BME280;6449;47.666;9.160;2023-06-10T15:44:04;96407.59;;;27.56;57.81
13594;BME280;6449;47.666;9.160;2023-06-10T15:48:57;96383.69;;;27.48;54.99
13594;BME280;6449;47.666;9.160;2023-06-10T15:53:51;96399.50;;;27.56;57.27
13594;BME280;6449;47.666;9.160;2023-06-10T15:58:44;96397.63;;;27.56;55.25
13594;BME280;6449;47.666;9.160;2023-06-10T16:03:39;96398.59;;;27.50;54.22
13594;BME280;6449;47.666;9.160;2023-06-10T16:08:34;96399.50;;;27.56;55.76
13594;BME280;6449;47.666;9.160;2023-06-10T16:13:27;96397.16;;;27.48;53.69
13594;BME280;6449;47.666;9.160;2023-06-10T16:18:21;96396.34;;;27.47;54.13
13594;BME280;6449;47.666;9.160;2023-06-10T16:23:16;96397.53;;;27.39;54.31
13594;BME280;6449;47.666;9.160;2023-06-10T16:28:09;96392.72;;;27.53;55.16
13594;BME280;6449;47.666;9.160;2023-06-10T16:33:02;96403.03;;;27.56;55.62
13594;BME280;6449;47.666;9.160;2023-06-10T16:37:57;96403.97;;;27.38;55.07
13594;BME280;6449;47.666;9.160;2023-06-10T16:42:55;96406.53;;;27.45;58.61
13594;BME280;6449;47.666;9.160;2023-06-10T16:47:49;96397.28;;;27.53;55.67
13594;BME280;6449;47.666;9.160;2023-06-10T16:52:42;96393.31;;;27.44;54.89
13594;BME280;6449;47.666;9.160;2023-06-10T16:57:36;96396.72;;;27.39;54.97
13594;BME280;6449;47.666;9.160;2023-06-10T17:02:30;96397.53;;;27.39;54.23
13594;BME280;6449;47.666;9.160;2023-06-10T17:07:26;96406.31;;;27.35;53.75
13594;BME280;6449;47.666;9.160;2023-06-10T17:12:20;96419.41;;;27.20;53.81
13594;BME280;6449;47.666;9.160;2023-06-10T17:17:13;96431.53;;;26.99;55.97
13594;BME280;6449;47.666;9.160;2023-06-10T17:22:08;96440.97;;;26.89;56.77
13594;BME280;6449;47.666;9.160;2023-06-10T17:27:10;96441.06;;;26.83;57.53
13594;BME280;6449;47.666;9.160;2023-06-10T17:32:04;96449.56;;;26.68;57.90
13594;BME280;6449;47.666;9.160;2023-06-10T17:36:58;96453.41;;;26.60;57.54
13594;BME280;6449;47.666;9.160;2023-06-10T17:41:52;96458.22;;;26.58;57.54
13594;BME280;6449;47.666;9.160;2023-06-10T17:46:46;96456.41;;;26.52;58.99
13594;BME280;6449;47.666;9.160;2023-06-10T17:51:40;96461.25;;;26.62;58.75
13594;BME280;6449;47.666;9.160;2023-06-10T17:56:33;96469.31;;;26.62;58.68
13594;BME280;6449;47.666;9.160;2023-06-10T18:01:28;96481.03;;;26.68;59.16
13594;BME280;6449;47.666;9.160;2023-06-10T18:06:22;96475.94;;;26.48;59.06
13594;BME280;6449;47.666;9.160;2023-06-10T18:11:15;96482.72;;;26.32;60.05
13594;BME280;6449;47.666;9.160;2023-06-10T18:16:08;96500.09;;;26.29;61.99
13594;BME280;6449;47.666;9.160;2023-06-10T18:21:03;96504.06;;;26.27;61.47
13594;BME280;6449;47.666;9.160;2023-06-10T18:25:58;96515.56;;;25.97;64.71
13594;BME280;6449;47.666;9.160;2023-06-10T18:30:51;96524.97;;;26.06;64.34
13594;BME280;6449;47.666;9.160;2023-06-10T18:35:45;96524.19;;;25.81;64.30
13594;BME280;6449;47.666;9.160;2023-06-10T18:40:40;96518.97;;;26.04;64.79
13594;BME280;6449;47.666;9.160;2023-06-10T18:45:33;96512.94;;;25.91;64.39
13594;BME280;6449;47.666;9.160;2023-06-10T18:50:27;96514.81;;;25.65;63.80
13594;BME280;6449;47.666;9.160;2023-06-10T18:55:20;96526.31;;;25.72;66.31
13594;BME280;6449;47.666;9.160;2023-06-10T19:00:16;96533.66;;;25.58;64.36
13594;BME280;6449;47.666;9.160;2023-06-10T19:05:10;96536.63;;;25.50;66.09
13594;BME280;6449;47.666;9.160;2023-06-10T19:10:06;96554.22;;;25.46;67.37
13594;BME280;6449;47.666;9.160;2023-06-10T19:15:00;96564.53;;;25.18;69.79
13594;BME280;6449;47.666;9.160;2023-06-10T19:19:54;96564.06;;;25.27;70.95
13594;BME280;6449;47.666;9.160;2023-06-10T19:24:58;96567.69;;;25.01;70.05
13594;BME280;6449;47.666;9.160;2023-06-10T19:29:52;96571.59;;;25.12;69.94
13594;BME280;6449;47.666;9.160;2023-06-10T19:34:46;96580.16;;;24.89;71.34
13594;BME280;6449;47.666;9.160;2023-06-10T19:39:41;96586.97;;;24.85;71.64
13594;BME280;6449;47.666;9.160;2023-06-10T19:44:35;96597.81;;;24.59;73.50
13594;BME280;6449;47.666;9.160;2023-06-10T19:49:28;96607.53;;;24.53;74.72
13594;BME280;6449;47.666;9.160;2023-06-10T19:54:22;96610.81;;;24.55;75.54
13594;BME280;6449;47.666;9.160;2023-06-10T19:59:17;96608.59;;;24.45;77.46
13594;BME280;6449;47.666;9.160;2023-06-10T20:04:10;96612.91;;;24.46;75.85
13594;BME280;6449;47.666;9.160;2023-06-10T20:09:04;96612.47;;;24.56;75.88
13594;BME280;6449;47.666;9.160;2023-06-10T20:13:57;96611.47;;;24.30;77.52
13594;BME280;6449;47.666;9.160;2023-06-10T20:18:52;96620.16;;;24.19;76.85
13594;BME280;6449;47.666;9.160;2023-06-10T20:23:45;96622.19;;;24.30;78.85
13594;BME280;6449;47.666;9.160;2023-06-10T20:28:39;96625.69;;;24.18;78.40
13594;BME280;6449;47.666;9.160;2023-06-10T20:33:32;96627.78;;;24.29;77.22
13594;BME280;6449;47.666;9.160;2023-06-10T20:38:27;96635.81;;;24.16;78.92
13594;BME280;6449;47.666;9.160;2023-06-10T20:43:20;96637.47;;;24.17;78.75
13594;BME280;6449;47.666;9.160;2023-06-10T20:48:14;96635.00;;;24.09;78.60
13594;BME280;6449;47.666;9.160;2023-06-10T20:53:08;96647.59;;;24.08;78.89
13594;BME280;6449;47.666;9.160;2023-06-10T20:58:03;96647.72;;;24.33;78.45
13594;BME280;6449;47.666;9.160;2023-06-10T21:02:56;96642.41;;;24.46;77.65
13594;BME280;6449;47.666;9.160;2023-06-10T21:07:49;96647.56;;;24.21;77.69
13594;BME280;6449;47.666;9.160;2023-06-10T21:12:43;96648.78;;;24.32;79.58
13594;BME280;6449;47.666;9.160;2023-06-10T21:17:38;96661.78;;;24.09;80.38
13594;BME280;6449;47.666;9.160;2023-06-10T21:22:31;96654.78;;;23.94;80.55
13594;BME280;6449;47.666;9.160;2023-06-10T21:27:24;96659.94;;;23.96;79.60
13594;BME280;6449;47.666;9.160;2023-06-10T21:32:18;96653.13;;;24.20;78.14
13594;BME280;6449;47.666;9.160;2023-06-10T21:37:13;96650.03;;;24.10;77.84
13594;BME280;6449;47.666;9.160;2023-06-10T21:42:08;96648.00;;;23.92;79.33
13594;BME280;6449;47.666;9.160;2023-06-10T21:47:02;96662.63;;;23.83;80.63
13594;BME280;6449;47.666;9.160;2023-06-10T21:51:56;96656.63;;;23.81;79.04
13594;BME280;6449;47.666;9.160;2023-06-10T21:56:51;96649.03;;;23.97;79.04
13594;BME280;6449;47.666;9.160;2023-06-10T22:01:44;96657.25;;;23.83;79.87
13594;BME280;6449;47.666;9.160;2023-06-10T22:06:37;96661.53;;;23.50;82.22
13594;BME280;6449;47.666;9.160;2023-06-10T22:11:31;96662.34;;;23.44;80.98
13594;BME280;6449;47.666;9.160;2023-06-10T22:16:26;96671.66;;;23.68;80.33
13594;BME280;6449;47.666;9.160;2023-06-10T22:21:19;96666.09;;;23.63;81.01
13594;BME280;6449;47.666;9.160;2023-06-10T22:26:14;96663.22;;;23.78;81.44
13594;BME280;6449;47.666;9.160;2023-06-10T22:31:08;96662.13;;;23.39;84.27
13594;BME280;6449;47.666;9.160;2023-06-10T22:36:03;96665.63;;;23.33;84.00
13594;BME280;6449;47.666;9.160;2023-06-10T22:40:57;96663.13;;;23.32;83.90
13594;BME280;6449;47.666;9.160;2023-06-10T22:45:50;96673.94;;;22.97;85.48
13594;BME280;6449;47.666;9.160;2023-06-10T22:50:43;96679.13;;;23.12;87.62
13594;BME280;6449;47.666;9.160;2023-06-10T22:55:38;96676.31;;;23.33;84.58
13594;BME280;6449;47.666;9.160;2023-06-10T23:00:32;96678.72;;;23.15;86.18
13594;BME280;6449;47.666;9.160;2023-06-10T23:05:25;96682.66;;;23.19;86.50
13594;BME280;6449;47.666;9.160;2023-06-10T23:10:19;96675.44;;;23.26;84.05
13594;BME280;6449;47.666;9.160;2023-06-10T23:15:14;96684.72;;;23.23;85.12
13594;BME280;6449;47.666;9.160;2023-06-10T23:20:09;96675.78;;;22.96;85.01
13594;BME280;6449;47.666;9.160;2023-06-10T23:25:03;96681.53;;;23.00;84.53
13594;BME280;6449;47.666;9.160;2023-06-10T23:29:57;96689.41;;;23.15;84.87
13594;BME280;6449;47.666;9.160;2023-06-10T23:34:53;96690.03;;;23.17;85.16
13594;BME280;6449;47.666;9.160;2023-06-10T23:39:46;96691.38;;;22.93;85.88
13594;BME280;6449;47.666;9.160;2023-06-10T23:44:40;96691.84;;;23.10;85.38
13594;BME280;6449;47.666;9.160;2023-06-10T23:49:34;96688.94;;;22.98;86.06
13594;BME280;6449;47.666;9.160;2023-06-10T23:54:28;96688.66;;;22.86;87.33
13594;BME280;6449;47.666;9.160;2023-06-10T23:59:22;96686.06;;;22.99;87.39
